Time;durP1;ratioP1;P1;durP2;ratioP2;P2;SDS_P1;SDS_P2;PMS_P1;PMS_P2;Temp;Humidity;BMP_temperature;BMP_pressure;BME280_temperature;BME280_humidity;BME280_pressure;Samples;Min_cycle;Max_cycle;Signal;HPM_P1;HPM_P2
2022/03/23 00:02:18;;;;;;;46.75;34.80;;;6.30;69.70;;;;;;5105778;28;20057;-65
2022/03/23 00:04:44;;;;;;;47.97;32.53;;;6.30;69.70;;;;;;5091763;28;20032;-65
2022/03/23 00:07:10;;;;;;;47.92;34.10;;;6.30;70.40;;;;;;5103428;28;21383;-65
2022/03/23 00:09:36;;;;;;;47.38;35.85;;;6.20;69.80;;;;;;5091922;28;20019;-65
2022/03/23 00:12:04;;;;;;;45.70;35.17;;;6.20;69.80;;;;;;5099082;28;20537;-65
2022/03/23 00:14:30;;;;;;;42.58;33.40;;;6.20;69.90;;;;;;5091355;28;20020;-65
2022/03/23 00:16:55;;;;;;;43.03;34.75;;;6.20;69.90;;;;;;5101850;28;20022;-65
2022/03/23 00:19:21;;;;;;;46.85;33.67;;;6.20;69.80;;;;;;5091242;28;20038;-65
2022/03/23 00:21:46;;;;;;;45.67;34.83;;;6.20;69.80;;;;;;5113816;28;20066;-65
2022/03/23 00:24:17;;;;;;;44.83;34.35;;;6.10;69.70;;;;;;5092950;28;20038;-65
2022/03/23 00:26:43;;;;;;;42.65;34.08;;;6.10;69.70;;;;;;5081074;28;20044;-65
2022/03/23 00:29:08;;;;;;;44.58;34.97;;;6.10;69.60;;;;;;5088150;28;20083;-65
2022/03/23 00:31:35;;;;;;;47.45;36.13;;;6.10;69.60;;;;;;5100241;28;20434;-65
2022/03/23 00:34:01;;;;;;;47.25;37.33;;;6.00;69.50;;;;;;5092763;28;20028;-65
2022/03/23 00:36:27;;;;;;;49.22;37.35;;;6.00;69.70;;;;;;5095419;28;20040;-65
2022/03/23 00:38:53;;;;;;;46.70;36.10;;;5.90;69.90;;;;;;5084544;28;20019;-65
2022/03/23 00:41:20;;;;;;;48.40;35.75;;;5.90;70.20;;;;;;5112072;28;20471;-65
2022/03/23 00:43:47;;;;;;;54.03;38.95;;;5.80;70.40;;;;;;5110831;28;20031;-65
2022/03/23 00:46:15;;;;;;;50.60;38.60;;;5.80;70.80;;;;;;5101557;28;20035;-65
2022/03/23 00:48:43;;;;;;;45.53;34.78;;;5.90;71.30;;;;;;5098122;28;20030;-65
2022/03/23 00:51:09;;;;;;;49.20;35.53;;;5.80;71.30;;;;;;5088758;28;20213;-65
2022/03/23 00:53:37;;;;;;;50.28;36.78;;;5.90;71.30;;;;;;5107530;28;20093;-65
2022/03/23 00:56:07;;;;;;;44.83;34.70;;;5.90;71.60;;;;;;5083364;28;20020;-65
2022/03/23 00:58:32;;;;;;;46.45;33.67;;;5.90;71.70;;;;;;5082824;28;20392;-65
2022/03/23 01:00:58;;;;;;;42.33;32.80;;;5.90;71.40;;;;;;5102149;28;20031;-65
2022/03/23 01:03:24;;;;;;;50.33;36.10;;;5.90;71.20;;;;;;5094755;27;20030;-65
2022/03/23 01:05:51;;;;;;;58.17;43.10;;;6.00;71.00;;;;;;5119763;27;20403;-65
2022/03/23 01:08:17;;;;;;;50.85;40.22;;;6.00;71.30;;;;;;5090373;27;20425;-65
2022/03/23 01:10:43;;;;;;;57.53;43.05;;;6.00;71.30;;;;;;5098133;28;20107;-65
2022/03/23 01:13:08;;;;;;;52.00;39.65;;;6.00;71.00;;;;;;5092948;28;20480;-65
2022/03/23 01:15:34;;;;;;;49.78;39.55;;;6.00;71.00;;;;;;5110989;28;20047;-65
2022/03/23 01:18:00;;;;;;;54.90;42.08;;;6.10;70.90;;;;;;5095721;28;20024;-65
2022/03/23 01:20:25;;;;;;;57.25;41.95;;;6.00;70.90;;;;;;5101842;28;20024;-65
2022/03/23 01:22:51;;;;;;;52.92;40.40;;;6.00;70.70;;;;;;5098334;27;20536;-65
2022/03/23 01:25:18;;;;;;;58.97;43.67;;;6.00;70.60;;;;;;5091850;28;20028;-65
2022/03/23 01:27:45;;;;;;;56.78;45.30;;;6.00;70.70;;;;;;5088177;28;20032;-65
2022/03/23 01:30:12;;;;;;;57.28;45.85;;;6.00;70.80;;;;;;5081596;28;20380;-65
2022/03/23 01:32:39;;;;;;;62.45;48.35;;;6.00;70.80;;;;;;5080371;28;20021;-65
2022/03/23 01:35:06;;;;;;;56.78;42.95;;;6.00;70.90;;;;;;5106330;28;20062;-66
2022/03/23 01:37:32;;;;;;;51.67;36.67;;;6.00;70.50;;;;;;5108904;27;20059;-65
2022/03/23 01:39:58;;;;;;;51.60;40.78;;;6.00;70.10;;;;;;5111729;27;20497;-65
2022/03/23 01:42:26;;;;;;;49.10;36.75;;;6.00;69.90;;;;;;5110088;28;20020;-65
2022/03/23 01:44:52;;;;;;;49.55;36.20;;;6.00;69.70;;;;;;5109992;27;20461;-65
2022/03/23 01:47:18;;;;;;;53.60;41.42;;;6.00;69.60;;;;;;5103096;28;20130;-65
2022/03/23 01:49:49;;;;;;;62.05;44.83;;;6.00;69.60;;;;;;5098132;28;20040;-65
2022/03/23 01:52:17;;;;;;;56.80;45.05;;;6.10;69.80;;;;;;5092882;28;20117;-65
2022/03/23 01:54:44;;;;;;;56.45;40.63;;;6.10;69.90;;;;;;5103799;28;20508;-65
2022/03/23 01:57:13;;;;;;;51.70;38.63;;;6.10;69.60;;;;;;5095508;28;20020;-65
2022/03/23 01:59:39;;;;;;;48.22;35.70;;;6.10;70.00;;;;;;5099203;28;20110;-65
2022/03/23 02:02:06;;;;;;;41.83;31.25;;;6.20;69.20;;;;;;5087000;27;20028;-65
2022/03/23 02:04:32;;;;;;;43.42;32.13;;;6.10;68.70;;;;;;5100003;27;20024;-65
2022/03/23 02:06:58;;;;;;;45.05;32.40;;;6.20;68.60;;;;;;5097055;28;20037;-65
2022/03/23 02:09:25;;;;;;;43.45;31.52;;;6.20;68.30;;;;;;5101714;28;20031;-65
2022/03/23 02:11:52;;;;;;;40.90;30.17;;;6.20;68.20;;;;;;5095890;28;20043;-65
2022/03/23 02:14:19;;;;;;;35.95;28.20;;;6.10;68.30;;;;;;5095699;28;20090;-65
2022/03/23 02:16:54;;;;;;;37.92;30.10;;;6.10;68.30;;;;;;5111775;28;20030;-65
2022/03/23 02:19:24;;;;;;;36.20;28.13;;;6.00;68.20;;;;;;5095985;28;20100;-65
2022/03/23 02:21:53;;;;;;;41.42;29.77;;;6.00;68.10;;;;;;5106702;28;20036;-65
2022/03/23 02:24:23;;;;;;;32.53;26.58;;;6.00;68.60;;;;;;5087251;28;20032;-65
2022/03/23 02:26:49;;;;;;;39.28;27.65;;;6.00;67.70;;;;;;5107276;28;20038;-65
2022/03/23 02:29:15;;;;;;;35.75;27.65;;;5.90;67.70;;;;;;5106250;28;20028;-65
2022/03/23 02:31:41;;;;;;;36.67;27.58;;;5.90;67.60;;;;;;5080493;28;20071;-65
2022/03/23 02:34:07;;;;;;;37.05;28.67;;;5.90;67.50;;;;;;5087683;28;20501;-65
2022/03/23 02:36:32;;;;;;;35.30;27.10;;;5.90;67.50;;;;;;5097788;28;20060;-65
2022/03/23 02:38:58;;;;;;;39.55;28.73;;;5.80;67.60;;;;;;5106739;28;20063;-65
2022/03/23 02:41:24;;;;;;;40.88;28.98;;;5.80;67.70;;;;;;5084128;28;20073;-65
2022/03/23 02:43:50;;;;;;;35.08;27.98;;;5.80;67.70;;;;;;5108479;28;20555;-65
2022/03/23 02:46:19;;;;;;;36.47;27.25;;;5.80;67.70;;;;;;5112768;28;20096;-65
2022/03/23 02:48:46;;;;;;;35.35;25.77;;;5.80;67.70;;;;;;5101901;28;20036;-65
2022/03/23 02:51:12;;;;;;;35.15;26.85;;;5.80;67.50;;;;;;5103270;28;20062;-65
2022/03/23 03:02:28;;;;;;;35.97;26.17;;;5.70;67.20;;;;;;5085578;28;20063;-65
2022/03/23 03:04:54;;;;;;;31.85;24.40;;;5.70;67.30;;;;;;5090239;28;20040;-65
2022/03/23 03:07:19;;;;;;;33.55;26.52;;;5.60;67.30;;;;;;5102245;28;20026;-65
2022/03/23 03:09:46;;;;;;;34.67;26.75;;;5.60;67.30;;;;;;5075785;28;20029;-65
2022/03/23 03:12:12;;;;;;;40.28;28.98;;;5.60;67.40;;;;;;5080193;28;20485;-65
2022/03/23 03:14:38;;;;;;;37.85;27.83;;;5.60;67.50;;;;;;5101975;28;20425;-66
2022/03/23 03:17:05;;;;;;;38.60;28.73;;;5.60;67.80;;;;;;5100321;28;20311;-65
2022/03/23 03:19:32;;;;;;;38.50;28.90;;;5.60;67.90;;;;;;5106916;28;20027;-65
2022/03/23 03:21:57;;;;;;;35.20;27.92;;;5.60;68.00;;;;;;5102669;28;20376;-65
2022/03/23 03:24:23;;;;;;;33.20;26.88;;;5.60;68.10;;;;;;5093470;28;20027;-65
2022/03/23 03:26:50;;;;;;;37.50;27.83;;;5.60;68.00;;;;;;5090515;28;20082;-65
2022/03/23 03:29:16;;;;;;;35.55;28.40;;;5.60;68.10;;;;;;5106902;28;20078;-65
2022/03/23 03:31:42;;;;;;;36.42;28.00;;;5.60;68.20;;;;;;5091029;28;20477;-65
2022/03/23 03:34:08;;;;;;;35.50;27.73;;;5.60;68.30;;;;;;5089465;28;20020;-65
2022/03/23 03:36:34;;;;;;;38.65;29.10;;;5.60;68.50;;;;;;5106870;28;20052;-65
2022/03/23 03:39:00;;;;;;;36.22;28.30;;;5.70;68.40;;;;;;5104412;28;20035;-65
2022/03/23 03:41:26;;;;;;;39.90;30.98;;;5.60;68.40;;;;;;5106058;28;20422;-65
2022/03/23 03:43:52;;;;;;;35.50;30.00;;;5.60;68.80;;;;;;5098770;28;20410;-65
2022/03/23 03:46:18;;;;;;;36.78;28.25;;;5.60;69.00;;;;;;5111252;28;20016;-65
2022/03/23 03:48:43;;;;;;;35.78;27.05;;;5.60;68.90;;;;;;5105905;28;20047;-65
2022/03/23 03:51:09;;;;;;;33.28;25.08;;;5.50;68.80;;;;;;5088330;28;20024;-65
2022/03/23 03:53:36;;;;;;;28.23;21.35;;;5.50;68.80;;;;;;5098507;28;20107;-65
2022/03/23 03:56:04;;;;;;;28.52;21.23;;;5.50;68.60;;;;;;5090672;28;20056;-65
2022/03/23 03:58:29;;;;;;;27.63;21.48;;;5.50;69.00;;;;;;5096988;28;20026;-65
2022/03/23 04:00:55;;;;;;;26.77;18.83;;;5.50;69.80;;;;;;5095434;28;20492;-65
2022/03/23 04:03:21;;;;;;;22.70;16.52;;;5.50;68.70;;;;;;5078467;28;20020;-65
2022/03/23 04:05:47;;;;;;;25.35;18.48;;;5.60;68.20;;;;;;5086786;28;20028;-65
2022/03/23 04:08:13;;;;;;;24.63;18.45;;;5.70;67.90;;;;;;5091229;28;20513;-65
2022/03/23 04:10:38;;;;;;;24.67;18.88;;;5.80;67.90;;;;;;5084318;28;20095;-64
2022/03/23 04:13:07;;;;;;;29.13;18.98;;;5.80;67.90;;;;;;5083513;28;20055;-65
2022/03/23 04:15:34;;;;;;;26.05;17.95;;;5.80;67.90;;;;;;5113595;28;20016;-65
2022/03/23 04:18:00;;;;;;;23.90;18.27;;;5.90;67.70;;;;;;5098078;28;20036;-65
2022/03/23 04:20:25;;;;;;;23.98;17.65;;;5.90;67.20;;;;;;5094454;28;20079;-65
2022/03/23 04:22:51;;;;;;;20.90;15.82;;;6.00;66.70;;;;;;5093823;28;20117;-65
2022/03/23 04:25:17;;;;;;;24.27;16.55;;;6.10;66.20;;;;;;5100545;28;20031;-65
2022/03/23 04:27:52;;;;;;;20.52;14.93;;;6.20;65.60;;;;;;5086273;28;20059;-65
2022/03/23 04:30:20;;;;;;;19.80;15.85;;;6.30;65.20;;;;;;5098298;28;20024;-65
2022/03/23 04:32:49;;;;;;;21.23;15.63;;;6.40;64.70;;;;;;5093685;28;20024;-65
2022/03/23 04:35:15;;;;;;;20.58;15.02;;;6.40;64.30;;;;;;5096587;28;20062;-64
2022/03/23 04:37:42;;;;;;;22.38;15.68;;;6.50;64.10;;;;;;5093843;28;20554;-65
2022/03/23 04:40:09;;;;;;;22.98;16.25;;;6.60;63.90;;;;;;5097052;28;20071;-65
2022/03/23 04:42:36;;;;;;;24.45;17.08;;;6.60;63.50;;;;;;5106466;28;20032;-65
2022/03/23 04:45:03;;;;;;;24.40;16.90;;;6.70;63.30;;;;;;5091882;28;20040;-65
2022/03/23 04:47:29;;;;;;;26.00;18.08;;;6.80;63.10;;;;;;5094904;28;20023;-64
2022/03/23 04:49:55;;;;;;;28.80;20.35;;;6.90;62.90;;;;;;5113473;28;20046;-64
2022/03/23 04:52:21;;;;;;;27.67;19.77;;;7.00;62.50;;;;;;5106597;28;20055;-64
2022/03/23 04:54:46;;;;;;;30.33;20.27;;;7.00;62.00;;;;;;5095645;28;20522;-65
2022/03/23 04:57:12;;;;;;;30.73;21.77;;;7.20;62.10;;;;;;5092112;28;20028;-65
2022/03/23 04:59:38;;;;;;;31.10;20.52;;;7.30;62.20;;;;;;5098441;28;20480;-65
2022/03/23 05:02:04;;;;;;;29.00;21.48;;;7.40;61.70;;;;;;5078584;28;20036;-65
2022/03/23 05:04:30;;;;;;;31.25;21.42;;;7.50;61.50;;;;;;5096044;28;20499;-65
2022/03/23 05:06:56;;;;;;;28.55;21.90;;;7.60;61.70;;;;;;5089961;28;20163;-65
2022/03/23 05:09:22;;;;;;;30.20;21.50;;;7.80;62.10;;;;;;5090775;28;20122;-64
2022/03/23 05:11:48;;;;;;;29.58;19.25;;;7.90;61.90;;;;;;5112027;28;20023;-65
2022/03/23 05:14:14;;;;;;;28.80;20.75;;;8.10;62.20;;;;;;5082664;28;20032;-64
2022/03/23 05:16:40;;;;;;;25.25;18.08;;;8.40;61.50;;;;;;5096744;28;20085;-65
2022/03/23 05:19:06;;;;;;;25.20;17.20;;;8.60;60.50;;;;;;5084219;28;20027;-65
2022/03/23 05:21:32;;;;;;;29.00;18.63;;;9.00;59.90;;;;;;5113092;28;20426;-64
2022/03/23 05:23:58;;;;;;;22.13;17.60;;;9.30;59.30;;;;;;5090922;28;20034;-64
2022/03/23 05:26:24;;;;;;;22.48;16.50;;;9.70;58.50;;;;;;5110076;28;20483;-64
2022/03/23 05:28:50;;;;;;;21.50;16.65;;;10.10;57.10;;;;;;5096974;28;20559;-65
2022/03/23 05:31:15;;;;;;;21.38;15.27;;;10.40;56.20;;;;;;5085612;28;20099;-65
2022/03/23 05:33:41;;;;;;;23.63;16.30;;;10.70;55.40;;;;;;5094377;28;20054;-65
2022/03/23 05:36:07;;;;;;;18.23;14.55;;;11.00;54.70;;;;;;5096215;28;20483;-64
2022/03/23 05:38:33;;;;;;;23.33;14.32;;;11.40;54.10;;;;;;5098742;28;20032;-64
2022/03/23 05:40:58;;;;;;;20.45;14.38;;;11.70;53.30;;;;;;5097629;28;20391;-65
2022/03/23 05:43:24;;;;;;;17.70;12.52;;;12.00;52.60;;;;;;5097171;28;20428;-63
2022/03/23 05:45:50;;;;;;;20.23;14.20;;;12.20;51.90;;;;;;5103095;28;20433;-63
2022/03/23 05:48:15;;;;;;;20.80;14.23;;;12.30;51.60;;;;;;5096548;28;20111;-62
2022/03/23 05:50:41;;;;;;;20.10;14.68;;;12.40;51.20;;;;;;5109060;28;20625;-63
2022/03/23 05:53:08;;;;;;;24.02;14.02;;;12.40;50.80;;;;;;5092470;28;20024;-63
2022/03/23 05:55:33;;;;;;;18.40;13.05;;;12.40;50.60;;;;;;5089597;28;20031;-63
2022/03/23 05:57:59;;;;;;;21.05;14.35;;;12.40;50.30;;;;;;5093894;27;20032;-62
2022/03/23 06:00:25;;;;;;;18.33;13.18;;;12.60;50.30;;;;;;5098841;28;20031;-63
2022/03/23 06:02:50;;;;;;;20.33;13.68;;;13.00;49.60;;;;;;5080247;28;20067;-62
2022/03/23 06:05:16;;;;;;;17.70;12.77;;;13.20;49.30;;;;;;5082372;28;20051;-62
2022/03/23 06:07:42;;;;;;;19.48;12.95;;;13.50;49.00;;;;;;5092313;28;20352;-63
2022/03/23 06:10:08;;;;;;;18.02;12.15;;;13.90;48.80;;;;;;5085373;28;20028;-63
2022/03/23 06:12:34;;;;;;;19.10;11.73;;;14.30;48.70;;;;;;5099017;28;20069;-63
2022/03/23 06:14:59;;;;;;;17.80;13.10;;;14.80;48.00;;;;;;5090327;28;20035;-63
2022/03/23 06:17:25;;;;;;;17.25;12.93;;;15.40;47.00;;;;;;5090938;28;20047;-63
2022/03/23 06:19:51;;;;;;;19.88;13.60;;;15.90;46.10;;;;;;5103627;28;20022;-63
2022/03/23 06:22:16;;;;;;;18.52;13.30;;;16.10;45.60;;;;;;5087164;28;20024;-63
2022/03/23 06:24:42;;;;;;;20.48;12.45;;;16.10;45.40;;;;;;5083054;28;20492;-63
2022/03/23 06:27:08;;;;;;;17.60;12.93;;;15.80;45.40;;;;;;5094249;28;20026;-63
2022/03/23 06:29:34;;;;;;;20.27;13.15;;;15.50;45.80;;;;;;5093332;28;20192;-63
2022/03/23 06:31:59;;;;;;;16.25;12.93;;;15.10;46.10;;;;;;5095162;28;20032;-63
2022/03/23 06:34:25;;;;;;;17.75;14.05;;;14.70;46.30;;;;;;5090429;28;20082;-63
2022/03/23 06:36:51;;;;;;;19.55;14.70;;;14.20;46.70;;;;;;5087222;28;20044;-63
2022/03/23 06:39:17;;;;;;;21.45;13.88;;;13.80;47.10;;;;;;5086365;28;20028;-63
2022/03/23 06:41:44;;;;;;;18.73;13.43;;;13.50;47.30;;;;;;5084908;28;20063;-64
2022/03/23 06:44:10;;;;;;;20.77;13.50;;;13.20;47.50;;;;;;5102735;28;20024;-63
2022/03/23 06:46:37;;;;;;;21.65;13.98;;;12.90;47.90;;;;;;5106019;28;20020;-64
2022/03/23 06:49:02;;;;;;;17.67;12.88;;;12.70;48.50;;;;;;5090053;28;20513;-63
2022/03/23 06:51:28;;;;;;;16.30;12.70;;;12.50;48.60;;;;;;5084266;28;20036;-64
2022/03/23 06:53:54;;;;;;;17.10;12.50;;;12.40;48.90;;;;;;5088986;28;20032;-63
2022/03/23 06:56:20;;;;;;;17.58;13.73;;;12.30;49.20;;;;;;5079290;28;20365;-63
2022/03/23 06:58:45;;;;;;;18.48;12.82;;;12.20;49.60;;;;;;5076470;28;20553;-63
2022/03/23 07:01:11;;;;;;;18.05;12.95;;;12.10;49.70;;;;;;5081916;28;20535;-63
2022/03/23 07:03:36;;;;;;;15.90;11.75;;;12.00;50.10;;;;;;5089853;28;20042;-63
2022/03/23 07:06:02;;;;;;;15.98;11.00;;;12.00;50.60;;;;;;5086828;28;20602;-63
2022/03/23 07:11:12;;;;;;;15.65;9.85;;;12.00;50.40;;;;;;5073042;28;20461;-63
2022/03/23 07:13:38;;;;;;;17.83;10.68;;;12.00;50.30;;;;;;5076488;28;20099;-66
2022/03/23 07:16:04;;;;;;;15.80;10.45;;;12.00;50.20;;;;;;5086610;28;20043;-65
2022/03/23 07:18:29;;;;;;;15.50;10.90;;;12.10;50.20;;;;;;5091278;28;20028;-64
2022/03/23 07:20:55;;;;;;;17.52;11.52;;;12.10;50.00;;;;;;5088906;28;20523;-64
2022/03/23 07:23:21;;;;;;;16.85;10.48;;;12.20;50.00;;;;;;5078209;28;20032;-64
2022/03/23 07:25:46;;;;;;;18.83;11.10;;;12.20;50.00;;;;;;5080094;28;20503;-65
2022/03/23 07:28:12;;;;;;;19.73;11.45;;;12.20;50.10;;;;;;5085828;28;20035;-64
2022/03/23 07:30:40;;;;;;;16.65;11.15;;;12.20;50.30;;;;;;5077872;28;20021;-64
2022/03/23 07:33:06;;;;;;;17.90;10.85;;;12.30;50.30;;;;;;5081419;28;20024;-64
2022/03/23 07:35:32;;;;;;;14.65;9.88;;;12.30;50.30;;;;;;5078196;28;20476;-64
2022/03/23 07:37:57;;;;;;;16.65;11.50;;;12.40;50.20;;;;;;5088976;28;20055;-64
2022/03/23 07:40:23;;;;;;;18.20;12.63;;;12.40;50.40;;;;;;5084664;28;20024;-65
2022/03/23 07:42:49;;;;;;;20.27;13.65;;;12.40;51.10;;;;;;5081791;28;20373;-64
2022/03/23 07:45:14;;;;;;;22.40;14.07;;;12.50;51.50;;;;;;5076430;28;20016;-64
2022/03/23 07:47:40;;;;;;;18.88;13.70;;;12.40;51.60;;;;;;5077706;28;20066;-64
2022/03/23 07:50:07;;;;;;;17.58;13.50;;;12.40;51.10;;;;;;5078449;28;20062;-65
2022/03/23 07:52:34;;;;;;;17.40;12.30;;;12.40;51.00;;;;;;5079749;28;20024;-61
2022/03/23 07:55:02;;;;;;;16.42;13.55;;;12.40;51.00;;;;;;5070577;28;20032;-61
2022/03/23 07:57:28;;;;;;;22.67;12.95;;;12.30;51.00;;;;;;5079858;28;20024;-61
2022/03/23 07:59:57;;;;;;;18.70;13.07;;;12.30;51.10;;;;;;5080103;28;20036;-61
2022/03/23 08:02:24;;;;;;;18.52;12.70;;;12.20;51.40;;;;;;5076893;28;20032;-61
2022/03/23 08:04:50;;;;;;;19.95;14.55;;;12.10;51.60;;;;;;5079066;28;20087;-61
2022/03/23 08:07:16;;;;;;;18.92;14.23;;;12.10;52.10;;;;;;5079246;28;20031;-61
2022/03/23 08:09:42;;;;;;;20.92;13.90;;;12.00;51.70;;;;;;5083250;28;20041;-61
2022/03/23 08:12:07;;;;;;;18.77;13.82;;;11.90;51.70;;;;;;5071681;28;20033;-64
2022/03/23 08:14:33;;;;;;;19.17;12.20;;;11.80;51.50;;;;;;5073915;28;20110;-65
2022/03/23 08:16:59;;;;;;;20.17;12.93;;;11.80;51.20;;;;;;5075189;28;20020;-62
2022/03/23 08:19:25;;;;;;;17.05;12.82;;;11.80;51.30;;;;;;5077783;28;20024;-64
2022/03/23 08:21:51;;;;;;;16.42;12.50;;;11.70;51.70;;;;;;5079512;28;20032;-64
2022/03/23 08:24:17;;;;;;;18.02;12.80;;;11.70;51.80;;;;;;5076088;28;20040;-65
2022/03/23 08:26:43;;;;;;;19.13;13.45;;;11.70;51.90;;;;;;5083549;28;20066;-64
2022/03/23 08:29:09;;;;;;;18.50;13.50;;;11.70;52.50;;;;;;5082062;28;20031;-62
2022/03/23 08:31:35;;;;;;;15.93;13.20;;;11.70;52.90;;;;;;5079792;28;20601;-61
2022/03/23 08:34:01;;;;;;;20.65;12.00;;;11.70;52.70;;;;;;5074340;28;20054;-63
2022/03/23 08:36:27;;;;;;;20.20;13.88;;;11.70;52.70;;;;;;5079452;28;20081;-65
2022/03/23 08:38:53;;;;;;;20.92;14.65;;;11.70;53.60;;;;;;5076524;28;20040;-64
2022/03/23 08:41:19;;;;;;;22.60;14.32;;;11.70;54.50;;;;;;5077863;28;20945;-63
2022/03/23 08:43:45;;;;;;;21.80;15.10;;;11.60;55.10;;;;;;5076890;28;20063;-63
2022/03/23 08:46:13;;;;;;;23.90;17.02;;;11.70;55.40;;;;;;5072043;28;20031;-62
2022/03/23 08:48:40;;;;;;;29.88;18.73;;;11.70;56.00;;;;;;5073623;28;20059;-64
2022/03/23 08:51:05;;;;;;;28.98;19.13;;;11.70;56.10;;;;;;5078454;28;20040;-61
2022/03/23 08:53:31;;;;;;;30.17;19.25;;;11.60;56.50;;;;;;5078701;28;20028;-62
2022/03/23 08:55:57;;;;;;;28.30;19.52;;;11.60;56.90;;;;;;5079557;28;20641;-62
2022/03/23 08:58:23;;;;;;;29.63;19.40;;;11.60;57.40;;;;;;5071794;28;20036;-63
2022/03/23 09:00:49;;;;;;;26.55;17.95;;;11.50;57.60;;;;;;5069476;28;20053;-64
2022/03/23 09:03:15;;;;;;;23.48;15.75;;;11.50;57.90;;;;;;5074075;28;20097;-63
2022/03/23 09:05:40;;;;;;;23.92;16.90;;;11.40;57.20;;;;;;5072845;28;20064;-63
2022/03/23 09:08:08;;;;;;;22.42;17.13;;;11.40;56.70;;;;;;5076985;28;20480;-64
2022/03/23 09:10:34;;;;;;;23.08;16.77;;;11.40;57.60;;;;;;5079352;28;20023;-63
2022/03/23 09:13:00;;;;;;;26.73;17.42;;;11.40;58.20;;;;;;5085225;28;20484;-63
2022/03/23 09:15:26;;;;;;;26.83;18.25;;;11.40;58.70;;;;;;5076276;28;20029;-63
2022/03/23 09:17:58;;;;;;;24.80;17.00;;;11.30;59.00;;;;;;5076159;28;20024;-64
2022/03/23 09:20:25;;;;;;;28.13;18.08;;;11.20;59.30;;;;;;5076234;28;20077;-64
2022/03/23 09:22:52;;;;;;;30.80;18.98;;;11.20;59.00;;;;;;5075502;28;20012;-63
2022/03/23 09:25:19;;;;;;;30.10;19.33;;;11.20;58.40;;;;;;5079662;28;20488;-65
2022/03/23 09:27:44;;;;;;;28.30;17.98;;;11.20;58.00;;;;;;5080531;28;20483;-64
2022/03/23 09:30:13;;;;;;;31.80;18.85;;;11.30;57.50;;;;;;5077140;28;20055;-64
2022/03/23 09:32:39;;;;;;;25.48;18.20;;;11.30;57.00;;;;;;5077811;28;20476;-63
2022/03/23 09:35:06;;;;;;;30.60;18.33;;;11.40;56.90;;;;;;5077420;28;20115;-63
2022/03/23 09:37:47;;;;;;;27.27;17.25;;;11.40;56.50;;;;;;5078582;28;20105;-63
2022/03/23 09:40:15;;;;;;;26.58;16.27;;;11.50;56.60;;;;;;5077646;28;20024;-64
2022/03/23 09:42:41;;;;;;;24.05;16.70;;;11.60;57.20;;;;;;5071053;28;20035;-63
2022/03/23 09:45:08;;;;;;;23.10;15.98;;;11.60;56.90;;;;;;5084759;28;20077;-64
2022/03/23 09:47:33;;;;;;;22.60;15.18;;;11.60;56.40;;;;;;5089241;28;20499;-64
2022/03/23 09:49:59;;;;;;;20.60;15.45;;;11.60;56.60;;;;;;5079041;28;20024;-63
2022/03/23 09:52:25;;;;;;;26.33;16.65;;;11.60;56.80;;;;;;5079666;28;20079;-63
2022/03/23 09:54:51;;;;;;;24.17;15.38;;;11.50;57.00;;;;;;5079805;28;20028;-63
2022/03/23 09:57:16;;;;;;;20.35;14.63;;;11.50;56.90;;;;;;5074227;28;21634;-63
2022/03/23 09:59:42;;;;;;;21.00;14.13;;;11.50;57.40;;;;;;5077644;28;20396;-64
2022/03/23 10:02:08;;;;;;;20.65;14.35;;;11.40;57.00;;;;;;5066155;28;20138;-65
2022/03/23 10:04:49;;;;;;;22.83;14.75;;;11.30;56.80;;;;;;5070878;28;20119;-65
2022/03/23 10:07:59;;;;;;;19.45;13.77;;;11.30;57.20;;;;;;5070127;28;21599;-65
2022/03/23 10:11:02;;;;;;;23.10;14.20;;;11.20;57.60;;;;;;5065929;28;20055;-65
2022/03/23 10:14:05;;;;;;;19.40;12.57;;;11.20;56.90;;;;;;5076110;28;20036;-65
2022/03/23 10:16:52;;;;;;;20.13;13.10;;;11.30;57.50;;;;;;5074141;28;20032;-65
2022/03/23 10:19:18;;;;;;;18.77;11.13;;;11.30;58.00;;;;;;5075911;28;20028;-65
2022/03/23 10:21:45;;;;;;;17.73;11.13;;;11.30;57.00;;;;;;5077945;28;20035;-65
2022/03/23 10:24:10;;;;;;;16.38;10.32;;;11.40;56.60;;;;;;5076090;28;20109;-65
2022/03/23 10:26:37;;;;;;;18.00;11.10;;;11.40;56.30;;;;;;5076596;28;20411;-65
2022/03/23 10:29:11;;;;;;;15.15;9.60;;;11.50;55.60;;;;;;5072770;28;20047;-65
2022/03/23 10:31:37;;;;;;;15.95;10.07;;;11.60;55.40;;;;;;5076881;28;20024;-65
2022/03/23 10:34:11;;;;;;;13.05;9.25;;;11.60;54.80;;;;;;5079221;28;20094;-66
2022/03/23 10:36:43;;;;;;;15.07;8.98;;;11.70;54.40;;;;;;5073770;28;20043;-64
2022/03/23 10:39:14;;;;;;;14.35;7.28;;;11.70;54.40;;;;;;5077360;28;20032;-65
2022/03/23 10:41:40;;;;;;;13.77;8.10;;;11.80;54.00;;;;;;5078421;28;20035;-64
2022/03/23 10:44:18;;;;;;;12.52;8.35;;;11.80;54.00;;;;;;5080876;28;20040;-65
2022/03/23 10:46:46;;;;;;;11.77;7.40;;;11.90;53.90;;;;;;5082429;28;20431;-64
2022/03/23 10:49:14;;;;;;;14.02;7.97;;;11.80;53.90;;;;;;5074639;28;20430;-64
2022/03/23 10:51:42;;;;;;;12.23;8.63;;;11.90;54.00;;;;;;5075139;28;20073;-63
2022/03/23 10:54:20;;;;;;;13.07;7.32;;;11.90;54.00;;;;;;5071891;28;20040;-65
2022/03/23 10:56:46;;;;;;;11.63;7.55;;;11.80;53.70;;;;;;5078396;28;20033;-64
2022/03/23 10:59:25;;;;;;;9.50;6.97;;;11.70;54.30;;;;;;5079803;28;20028;-65
2022/03/23 11:02:08;;;;;;;7.95;6.32;;;11.70;54.30;;;;;;5071077;28;20547;-64
2022/03/23 11:04:56;;;;;;;9.10;6.35;;;11.60;54.50;;;;;;5075567;28;20028;-64
2022/03/23 11:07:31;;;;;;;10.95;7.57;;;11.60;54.60;;;;;;5080631;28;20032;-64
2022/03/23 11:15:50;;;;;;;9.63;6.57;;;11.50;54.50;;;;;;5077598;28;20038;-63
2022/03/23 11:18:17;;;;;;;13.75;7.22;;;11.50;54.70;;;;;;5075226;28;20032;-64
2022/03/23 11:20:45;;;;;;;12.35;6.68;;;11.60;54.60;;;;;;5070465;28;20622;-64
2022/03/23 11:23:25;;;;;;;12.68;7.68;;;11.60;54.50;;;;;;5080784;28;20030;-64
2022/03/23 11:25:53;;;;;;;10.80;6.18;;;11.70;54.60;;;;;;5075603;28;20036;-64
2022/03/23 11:28:20;;;;;;;11.25;6.45;;;11.70;53.80;;;;;;5078439;28;20028;-64
2022/03/23 11:30:47;;;;;;;10.75;6.00;;;11.70;53.70;;;;;;5066690;28;20035;-64
2022/03/23 11:33:25;;;;;;;11.05;6.47;;;11.70;53.80;;;;;;5067044;28;20020;-64
2022/03/23 11:35:52;;;;;;;10.68;6.68;;;11.70;53.50;;;;;;5074070;28;20024;-64
2022/03/23 11:38:22;;;;;;;7.57;5.97;;;11.70;53.60;;;;;;5075123;28;20028;-64
2022/03/23 11:40:49;;;;;;;9.88;6.40;;;11.70;53.70;;;;;;5066731;28;20027;-64
2022/03/23 11:43:17;;;;;;;10.80;6.15;;;11.70;53.40;;;;;;5076237;28;20116;-64
2022/03/23 11:45:46;;;;;;;10.85;6.28;;;11.80;53.30;;;;;;5067247;28;20480;-62
2022/03/23 11:48:45;;;;;;;10.93;6.68;;;11.80;53.60;;;;;;5073469;28;20035;-62
2022/03/23 11:51:49;;;;;;;10.00;5.78;;;11.90;53.70;;;;;;5062192;28;20047;-64
2022/03/23 11:57:54;;;;;;;9.02;6.22;;;11.90;53.60;;;;;;5072671;28;20038;-62
2022/03/23 12:00:27;;;;;;;10.73;5.85;;;11.90;54.00;;;;;;5070328;28;20032;-61
2022/03/23 12:02:54;;;;;;;7.97;5.13;;;11.90;53.30;;;;;;5073195;28;20525;-62
2022/03/23 12:05:23;;;;;;;8.93;5.00;;;11.90;53.30;;;;;;5078209;28;20137;-63
2022/03/23 12:07:49;;;;;;;8.23;5.47;;;12.00;53.20;;;;;;5072898;28;20107;-63
2022/03/23 12:10:30;;;;;;;8.23;5.20;;;12.00;53.00;;;;;;5066224;28;20038;-62
2022/03/23 12:12:56;;;;;;;;;;;12.00;53.20;;;;;;5075454;28;20067;-63
2022/03/23 12:15:24;;;;;;;6.65;4.35;;;11.90;53.10;;;;;;5070183;28;20027;-62
2022/03/23 12:17:56;;;;;;;7.63;4.30;;;11.90;53.20;;;;;;5069994;28;20032;-63
2022/03/23 12:20:28;;;;;;;;;;;11.90;52.90;;;;;;5064434;28;20033;-61
2022/03/23 12:23:11;;;;;;;7.47;4.68;;;11.90;53.00;;;;;;5063986;28;19916;-62
2022/03/23 12:26:01;;;;;;;8.45;5.00;;;11.90;53.30;;;;;;5071191;28;20028;-60
2022/03/23 12:28:54;;;;;;;7.03;4.75;;;11.90;53.70;;;;;;5077927;28;20134;-62
2022/03/23 12:31:21;;;;;;;9.02;5.07;;;11.80;53.60;;;;;;5068981;28;20500;-62
2022/03/23 12:34:12;;;;;;;6.53;4.25;;;11.80;53.80;;;;;;5076460;28;20424;-62
2022/03/23 12:37:08;;;;;;;6.00;4.57;;;11.80;53.70;;;;;;5077320;28;20052;-62
2022/03/23 12:39:40;;;;;;;7.45;4.50;;;11.70;53.30;;;;;;5073933;28;20049;-62
2022/03/23 12:42:11;;;;;;;5.97;4.50;;;11.70;53.20;;;;;;5064251;28;20032;-65
2022/03/23 12:44:39;;;;;;;7.50;4.57;;;11.70;52.80;;;;;;5070369;28;20115;-63
2022/03/23 12:47:06;;;;;;;6.03;4.10;;;11.70;52.60;;;;;;5069622;28;20816;-63
2022/03/23 12:58:10;;;;;;;7.53;3.72;;;11.70;52.80;;;;;;5065420;28;20062;-63
2022/03/23 13:00:38;;;;;;;6.28;4.15;;;11.70;52.60;;;;;;5064800;28;20044;-62
2022/03/23 13:03:06;;;;;;;11.40;7.25;;;11.70;52.50;;;;;;5067609;28;20521;-63
2022/03/23 13:05:37;;;;;;;8.25;5.40;;;11.80;52.40;;;;;;5068296;28;20032;-63
2022/03/23 13:08:46;;;;;;;9.83;5.03;;;11.80;52.20;;;;;;5068110;28;20032;-63
2022/03/23 13:11:12;;;;;;;8.13;4.68;;;11.90;52.00;;;;;;5070560;28;20476;-64